CSN324 VDPP-ZGGG
Flight info
| Callsign | CSN324 |
|---|---|
| Flight time | N/A |
| Altitude | 35000 |
| Route | SEYHA2 VIBUN N639 VILAO/K0846F370 A202 ASSAD/K0846S1130 A202 AGPOR DCT UDUTI DCT GYA GYA8 |
| Aircraft | A320/M-SDE3FGHIRWY/LB1 |
Departure
| Time | 2026-04-28 12:44 |
|---|---|
| Airport | Phnom Penh International Airport (VDPP) |
Arrival
| Time | N/A |
|---|---|
| Airport | Guangzhou Baiyun International Airport (ZGGG) |
| Time | Latitude | Longitude | Altitude | Speed | Heading |
|---|---|---|---|---|---|
| 2026-04-28 12:33 | 11.55291 | 104.84670 | 63 ft | 0 kts | 317° |
| 2026-04-28 12:40 | 11.55282 | 104.84679 | 52 ft | 3 kts | 323° |
| 2026-04-28 12:40 | 11.55265 | 104.84690 | 61 ft | 3 kts | 339° |
| 2026-04-28 12:40 | 11.55246 | 104.84694 | 55 ft | 3 kts | 4° |
| 2026-04-28 12:41 | 11.55229 | 104.84690 | 63 ft | 3 kts | 42° |
| 2026-04-28 12:41 | 11.55222 | 104.84682 | 63 ft | 0 kts | 62° |
| 2026-04-28 12:42 | 11.55226 | 104.84691 | 63 ft | 8 kts | 64° |
| 2026-04-28 12:42 | 11.55192 | 104.84794 | 63 ft | 17 kts | 140° |
| 2026-04-28 12:42 | 11.55112 | 104.84873 | 65 ft | 13 kts | 164° |
| 2026-04-28 12:43 | 11.55075 | 104.84854 | 60 ft | 10 kts | 225° |
| 2026-04-28 12:43 | 11.54815 | 104.84585 | 64 ft | 97 kts | 225° |
| 2026-04-28 12:43 | 11.54167 | 104.83904 | 68 ft | 167 kts | 225° |
| 2026-04-28 12:43 | 11.53349 | 104.82945 | 625 ft | 183 kts | 242° |
| 2026-04-28 12:44 | 11.53235 | 104.81711 | 1287 ft | 180 kts | 290° |
| 2026-04-28 12:44 | 11.54074 | 104.80794 | 1806 ft | 183 kts | 337° |
| 2026-04-28 12:44 | 11.55314 | 104.80380 | 2202 ft | 194 kts | 343° |
| 2026-04-28 12:44 | 11.56653 | 104.79963 | 2479 ft | 209 kts | 342° |
| 2026-04-28 12:45 | 11.58097 | 104.79500 | 2742 ft | 225 kts | 343° |
| 2026-04-28 12:45 | 11.59705 | 104.79357 | 2989 ft | 243 kts | 13° |
| 2026-04-28 12:45 | 11.60802 | 104.79663 | 3261 ft | 253 kts | 18° |
| 2026-04-28 12:45 | 11.63159 | 104.80365 | 3851 ft | 274 kts | 17° |
| 2026-04-28 12:46 | 11.64385 | 104.80719 | 4293 ft | 278 kts | 17° |
| 2026-04-28 12:46 | 11.66262 | 104.81254 | 5053 ft | 281 kts | 17° |
| 2026-04-28 12:46 | 11.68157 | 104.81793 | 5794 ft | 284 kts | 17° |
| 2026-04-28 12:46 | 11.70074 | 104.82340 | 6529 ft | 287 kts | 17° |
| 2026-04-28 12:47 | 11.72009 | 104.82896 | 7236 ft | 290 kts | 17° |
| 2026-04-28 12:47 | 11.73959 | 104.83457 | 7954 ft | 293 kts | 16° |
| 2026-04-28 12:47 | 11.75930 | 104.84024 | 8668 ft | 295 kts | 16° |
| 2026-04-28 12:47 | 11.78594 | 104.84789 | 9610 ft | 299 kts | 16° |
| 2026-04-28 12:48 | 11.79926 | 104.85172 | 10001 ft | 302 kts | 16° |
| 2026-04-28 12:48 | 11.81997 | 104.85766 | 10339 ft | 317 kts | 16° |
| 2026-04-28 12:48 | 11.84174 | 104.86392 | 10591 ft | 333 kts | 16° |
| 2026-04-28 12:48 | 11.86459 | 104.87052 | 10809 ft | 349 kts | 16° |
| 2026-04-28 12:49 | 11.88854 | 104.87745 | 11000 ft | 365 kts | 16° |
| 2026-04-28 12:49 | 11.91341 | 104.88464 | 11304 ft | 376 kts | 16° |
| 2026-04-28 12:49 | 11.93872 | 104.89192 | 11804 ft | 379 kts | 16° |
| 2026-04-28 12:49 | 11.96422 | 104.89924 | 12358 ft | 382 kts | 15° |
| 2026-04-28 12:50 | 11.98958 | 104.90652 | 12895 ft | 384 kts | 15° |
| 2026-04-28 12:50 | 12.01541 | 104.91399 | 13434 ft | 387 kts | 15° |
| 2026-04-28 12:50 | 12.04139 | 104.92156 | 13925 ft | 389 kts | 16° |
| 2026-04-28 12:50 | 12.06755 | 104.92917 | 14377 ft | 392 kts | 15° |
| 2026-04-28 12:51 | 12.09390 | 104.93677 | 14838 ft | 395 kts | 15° |
| 2026-04-28 12:51 | 12.12048 | 104.94443 | 15290 ft | 398 kts | 15° |
| 2026-04-28 12:51 | 12.14721 | 104.95213 | 15746 ft | 401 kts | 15° |
| 2026-04-28 12:51 | 12.17417 | 104.95992 | 16208 ft | 404 kts | 15° |
| 2026-04-28 12:52 | 12.20130 | 104.96777 | 16668 ft | 407 kts | 15° |
| 2026-04-28 12:52 | 12.22866 | 104.97567 | 17122 ft | 410 kts | 15° |
| 2026-04-28 12:52 | 12.25625 | 104.98363 | 17585 ft | 413 kts | 15° |
| 2026-04-28 12:52 | 12.28402 | 104.99164 | 18052 ft | 417 kts | 15° |
| 2026-04-28 12:53 | 12.31207 | 104.99972 | 18453 ft | 419 kts | 15° |
| 2026-04-28 12:53 | 12.33988 | 105.00775 | 18845 ft | 422 kts | 15° |
| 2026-04-28 12:53 | 12.36818 | 105.01594 | 19242 ft | 424 kts | 15° |
| 2026-04-28 12:53 | 12.39669 | 105.02424 | 19635 ft | 427 kts | 15° |
| 2026-04-28 12:54 | 12.42536 | 105.03257 | 20023 ft | 429 kts | 15° |
| 2026-04-28 12:54 | 12.45416 | 105.04092 | 20403 ft | 431 kts | 14° |
| 2026-04-28 12:54 | 12.48311 | 105.04932 | 20770 ft | 434 kts | 14° |
| 2026-04-28 12:54 | 12.51224 | 105.05776 | 21133 ft | 436 kts | 14° |
| 2026-04-28 12:55 | 12.54149 | 105.06622 | 21482 ft | 438 kts | 14° |
| 2026-04-28 12:55 | 12.57089 | 105.07474 | 21828 ft | 440 kts | 14° |
| 2026-04-28 12:55 | 12.60046 | 105.08327 | 22159 ft | 442 kts | 14° |
| 2026-04-28 12:55 | 12.63016 | 105.09182 | 22468 ft | 444 kts | 14° |
| 2026-04-28 12:56 | 12.66003 | 105.10044 | 22772 ft | 446 kts | 14° |
| 2026-04-28 12:56 | 12.68997 | 105.10912 | 23066 ft | 449 kts | 14° |
| 2026-04-28 12:56 | 12.72011 | 105.11789 | 23358 ft | 451 kts | 14° |
| 2026-04-28 12:56 | 12.75030 | 105.12667 | 23602 ft | 453 kts | 14° |
| 2026-04-28 12:57 | 12.78068 | 105.13549 | 23841 ft | 454 kts | 14° |
| 2026-04-28 12:57 | 12.81117 | 105.14433 | 24081 ft | 456 kts | 14° |
| 2026-04-28 12:57 | 12.84142 | 105.15310 | 24313 ft | 458 kts | 14° |
| 2026-04-28 12:57 | 12.87217 | 105.16202 | 24549 ft | 460 kts | 14° |
| 2026-04-28 12:58 | 12.90300 | 105.17100 | 24778 ft | 461 kts | 14° |
| 2026-04-28 12:58 | 12.93388 | 105.17999 | 25005 ft | 463 kts | 14° |
| 2026-04-28 12:58 | 12.96495 | 105.18902 | 25226 ft | 464 kts | 14° |
| 2026-04-28 12:58 | 12.99609 | 105.19808 | 25442 ft | 466 kts | 14° |
| 2026-04-28 12:59 | 13.02733 | 105.20715 | 25650 ft | 468 kts | 14° |
| 2026-04-28 12:59 | 13.05873 | 105.21626 | 25867 ft | 469 kts | 14° |
| 2026-04-28 12:59 | 13.09014 | 105.22539 | 26084 ft | 471 kts | 14° |
| 2026-04-28 12:59 | 13.12172 | 105.23462 | 26293 ft | 473 kts | 14° |
| 2026-04-28 13:00 | 13.15336 | 105.24388 | 26552 ft | 473 kts | 14° |
| 2026-04-28 13:00 | 13.18496 | 105.25312 | 26862 ft | 472 kts | 14° |
| 2026-04-28 13:00 | 13.21656 | 105.26234 | 27165 ft | 471 kts | 14° |
| 2026-04-28 13:00 | 13.24811 | 105.27151 | 27467 ft | 471 kts | 13° |
| 2026-04-28 13:01 | 13.27963 | 105.28065 | 27770 ft | 471 kts | 13° |
| 2026-04-28 13:01 | 13.31115 | 105.28982 | 28074 ft | 471 kts | 13° |
| 2026-04-28 13:01 | 13.34268 | 105.29899 | 28389 ft | 471 kts | 13° |
| 2026-04-28 13:01 | 13.37418 | 105.30819 | 28702 ft | 471 kts | 13° |
| 2026-04-28 13:02 | 13.40536 | 105.31727 | 29019 ft | 471 kts | 13° |
| 2026-04-28 13:02 | 13.43686 | 105.32646 | 29337 ft | 471 kts | 13° |
| 2026-04-28 13:02 | 13.46836 | 105.33566 | 29656 ft | 471 kts | 13° |
| 2026-04-28 13:02 | 13.49990 | 105.34489 | 29976 ft | 471 kts | 13° |
| 2026-04-28 13:03 | 13.53143 | 105.35413 | 30242 ft | 471 kts | 13° |
| 2026-04-28 13:03 | 13.56306 | 105.36336 | 30523 ft | 471 kts | 13° |
| 2026-04-28 13:03 | 13.59437 | 105.37249 | 30843 ft | 470 kts | 13° |
| 2026-04-28 13:03 | 13.62260 | 105.38074 | 31123 ft | 469 kts | 13° |
| 2026-04-28 13:04 | 13.65399 | 105.38993 | 31440 ft | 468 kts | 13° |
| 2026-04-28 13:04 | 13.68532 | 105.39908 | 31752 ft | 468 kts | 13° |
| 2026-04-28 13:04 | 13.71657 | 105.40818 | 32078 ft | 467 kts | 13° |
| 2026-04-28 13:04 | 13.74738 | 105.41718 | 32390 ft | 466 kts | 13° |
| 2026-04-28 13:05 | 13.77851 | 105.42630 | 32711 ft | 465 kts | 13° |
| 2026-04-28 13:05 | 13.80971 | 105.43541 | 33035 ft | 465 kts | 12° |
| 2026-04-28 13:05 | 13.84087 | 105.44409 | 33352 ft | 464 kts | 11° |
| 2026-04-28 13:05 | 13.87209 | 105.45235 | 33670 ft | 463 kts | 11° |
| 2026-04-28 13:06 | 13.90329 | 105.46034 | 33951 ft | 462 kts | 11° |
| 2026-04-28 13:06 | 13.93449 | 105.46830 | 34207 ft | 462 kts | 11° |
| 2026-04-28 13:06 | 13.96565 | 105.47635 | 34453 ft | 461 kts | 11° |
| 2026-04-28 13:06 | 13.99675 | 105.48449 | 34694 ft | 461 kts | 11° |
| 2026-04-28 13:07 | 14.02784 | 105.49270 | 34837 ft | 461 kts | 11° |
| 2026-04-28 13:07 | 14.08989 | 105.50923 | 34875 ft | 461 kts | 11° |
| 2026-04-28 13:08 | 14.15214 | 105.52541 | 34879 ft | 461 kts | 9° |
| 2026-04-28 13:08 | 14.21490 | 105.53858 | 34881 ft | 460 kts | 7° |
| 2026-04-28 13:09 | 14.27785 | 105.55038 | 34878 ft | 460 kts | 7° |
| 2026-04-28 13:09 | 14.34088 | 105.56262 | 34874 ft | 461 kts | 7° |
| 2026-04-28 13:10 | 14.40385 | 105.57554 | 34874 ft | 462 kts | 8° |
| 2026-04-28 13:10 | 14.46654 | 105.58856 | 34875 ft | 462 kts | 8° |
| 2026-04-28 13:11 | 14.52965 | 105.60153 | 34876 ft | 462 kts | 7° |
| 2026-04-28 13:11 | 14.59275 | 105.61441 | 34877 ft | 463 kts | 7° |
| 2026-04-28 13:12 | 14.65600 | 105.62722 | 34871 ft | 463 kts | 7° |
| 2026-04-28 13:12 | 14.71922 | 105.64011 | 34872 ft | 463 kts | 7° |
| 2026-04-28 13:13 | 14.77914 | 105.65239 | 34874 ft | 464 kts | 7° |
| 2026-04-28 13:13 | 14.84248 | 105.66538 | 34870 ft | 464 kts | 7° |
| 2026-04-28 13:14 | 14.90583 | 105.67837 | 34862 ft | 464 kts | 7° |
| 2026-04-28 13:14 | 14.96876 | 105.69127 | 34866 ft | 464 kts | 7° |
| 2026-04-28 13:15 | 15.03226 | 105.70426 | 34865 ft | 465 kts | 7° |
| 2026-04-28 13:15 | 15.09575 | 105.71727 | 34867 ft | 465 kts | 7° |
| 2026-04-28 13:16 | 15.15931 | 105.73032 | 34860 ft | 466 kts | 7° |
| 2026-04-28 13:16 | 15.22124 | 105.74269 | 34865 ft | 465 kts | 6° |
| 2026-04-28 13:17 | 15.28338 | 105.75274 | 34868 ft | 464 kts | 4° |
| 2026-04-28 13:17 | 15.34711 | 105.76193 | 34866 ft | 465 kts | 4° |
| 2026-04-28 13:18 | 15.41116 | 105.77157 | 34864 ft | 465 kts | 5° |
| 2026-04-28 13:18 | 15.47347 | 105.78148 | 34862 ft | 466 kts | 5° |
| 2026-04-28 13:19 | 15.53587 | 105.79152 | 34857 ft | 466 kts | 5° |
| 2026-04-28 13:19 | 15.59998 | 105.80168 | 34858 ft | 466 kts | 5° |
| 2026-04-28 13:20 | 15.66423 | 105.81181 | 34859 ft | 466 kts | 5° |
| 2026-04-28 13:20 | 15.72840 | 105.82194 | 34854 ft | 467 kts | 5° |
| 2026-04-28 13:21 | 15.79092 | 105.83184 | 34853 ft | 467 kts | 5° |
| 2026-04-28 13:21 | 15.85520 | 105.84206 | 34855 ft | 468 kts | 5° |
| 2026-04-28 13:22 | 15.91913 | 105.85221 | 34853 ft | 468 kts | 5° |
| 2026-04-28 13:22 | 15.98350 | 105.86230 | 34852 ft | 468 kts | 5° |
| 2026-04-28 13:23 | 16.04797 | 105.87250 | 34848 ft | 469 kts | 5° |
| 2026-04-28 13:23 | 16.11249 | 105.88274 | 34849 ft | 469 kts | 5° |
| 2026-04-28 13:24 | 16.17708 | 105.89311 | 34845 ft | 469 kts | 5° |
| 2026-04-28 13:24 | 16.24158 | 105.90337 | 34846 ft | 469 kts | 4° |
| 2026-04-28 13:25 | 16.30411 | 105.91326 | 34844 ft | 470 kts | 4° |
| 2026-04-28 13:25 | 16.36873 | 105.92356 | 34845 ft | 470 kts | 4° |
| 2026-04-28 13:26 | 16.43132 | 105.93349 | 34842 ft | 470 kts | 5° |
| 2026-04-28 13:26 | 16.49399 | 105.94350 | 34840 ft | 470 kts | 5° |
| 2026-04-28 13:27 | 16.55829 | 105.95383 | 34845 ft | 471 kts | 5° |
| 2026-04-28 13:27 | 16.62303 | 105.96420 | 34851 ft | 471 kts | 4° |
| 2026-04-28 13:28 | 16.68784 | 105.97455 | 34847 ft | 471 kts | 5° |
| 2026-04-28 13:28 | 16.75067 | 105.98457 | 34846 ft | 472 kts | 4° |
| 2026-04-28 13:29 | 16.81344 | 105.99452 | 34854 ft | 472 kts | 4° |
| 2026-04-28 13:29 | 16.87839 | 106.00488 | 34851 ft | 472 kts | 4° |
| 2026-04-28 13:30 | 16.94328 | 106.01529 | 34855 ft | 472 kts | 4° |
| 2026-04-28 13:30 | 17.00822 | 106.02571 | 34857 ft | 472 kts | 5° |
| 2026-04-28 13:31 | 17.10358 | 106.04104 | 34866 ft | 473 kts | 4° |
| 2026-04-28 13:31 | 17.16865 | 106.05152 | 34872 ft | 473 kts | 4° |
| 2026-04-28 13:32 | 17.23332 | 106.06188 | 34864 ft | 473 kts | 4° |
| 2026-04-28 13:32 | 17.29632 | 106.07262 | 34870 ft | 476 kts | 10° |
| 2026-04-28 13:33 | 17.32796 | 106.08345 | 34862 ft | 482 kts | 21° |
| 2026-04-28 13:33 | 17.35762 | 106.10012 | 34864 ft | 488 kts | 32° |
| 2026-04-28 13:33 | 17.38424 | 106.12215 | 34866 ft | 491 kts | 43° |
| 2026-04-28 13:33 | 17.40678 | 106.14884 | 34856 ft | 492 kts | 54° |
| 2026-04-28 13:34 | 17.44182 | 106.20512 | 34854 ft | 493 kts | 57° |
| 2026-04-28 13:34 | 17.47901 | 106.26558 | 34843 ft | 493 kts | 57° |
| 2026-04-28 13:35 | 17.51624 | 106.32601 | 34837 ft | 493 kts | 57° |
| 2026-04-28 13:35 | 17.55342 | 106.38646 | 34837 ft | 493 kts | 57° |
| 2026-04-28 13:36 | 17.59036 | 106.44662 | 34825 ft | 494 kts | 57° |
| 2026-04-28 13:36 | 17.62756 | 106.50718 | 34815 ft | 494 kts | 57° |
| 2026-04-28 13:37 | 17.66473 | 106.56777 | 34815 ft | 494 kts | 57° |
| 2026-04-28 13:37 | 17.70182 | 106.62852 | 34810 ft | 494 kts | 57° |
| 2026-04-28 13:38 | 17.73882 | 106.68936 | 34810 ft | 494 kts | 57° |
| 2026-04-28 13:38 | 17.77581 | 106.75021 | 34809 ft | 495 kts | 57° |
| 2026-04-28 13:39 | 17.81268 | 106.81067 | 34806 ft | 495 kts | 57° |
| 2026-04-28 13:39 | 17.84355 | 106.86136 | 34807 ft | 495 kts | 57° |
| 2026-04-28 13:40 | 17.87829 | 106.91856 | 34808 ft | 495 kts | 57° |
| 2026-04-28 13:40 | 17.91506 | 106.97911 | 34812 ft | 495 kts | 57° |
| 2026-04-28 13:41 | 17.95234 | 107.04000 | 34823 ft | 496 kts | 56° |
| 2026-04-28 13:41 | 17.98968 | 107.10100 | 34834 ft | 496 kts | 57° |
| 2026-04-28 13:42 | 18.02686 | 107.16195 | 34822 ft | 496 kts | 57° |
| 2026-04-28 13:42 | 18.06399 | 107.22304 | 34832 ft | 496 kts | 57° |
| 2026-04-28 13:43 | 18.10110 | 107.28418 | 34822 ft | 496 kts | 57° |
| 2026-04-28 13:43 | 18.13826 | 107.34540 | 34821 ft | 496 kts | 57° |
| 2026-04-28 13:44 | 18.17538 | 107.40653 | 34828 ft | 496 kts | 57° |
| 2026-04-28 13:44 | 18.21223 | 107.46735 | 34830 ft | 496 kts | 57° |
| 2026-04-28 13:45 | 18.24927 | 107.52861 | 34826 ft | 496 kts | 57° |
| 2026-04-28 13:45 | 18.28628 | 107.58990 | 34829 ft | 496 kts | 57° |
| 2026-04-28 13:46 | 18.32339 | 107.65131 | 34828 ft | 497 kts | 57° |
| 2026-04-28 13:46 | 18.36400 | 107.71004 | 34828 ft | 496 kts | 49° |
| 2026-04-28 13:47 | 18.40821 | 107.76595 | 34834 ft | 496 kts | 49° |
| 2026-04-28 13:47 | 18.45225 | 107.82185 | 34832 ft | 496 kts | 49° |
| 2026-04-28 13:48 | 18.49624 | 107.87785 | 34833 ft | 496 kts | 49° |
| 2026-04-28 13:48 | 18.54024 | 107.93391 | 34833 ft | 496 kts | 49° |
| 2026-04-28 13:49 | 18.58432 | 107.99002 | 34832 ft | 496 kts | 49° |
| 2026-04-28 13:49 | 18.62816 | 108.04578 | 34835 ft | 497 kts | 49° |
| 2026-04-28 13:50 | 18.67222 | 108.10199 | 34835 ft | 497 kts | 49° |
| 2026-04-28 13:50 | 18.71626 | 108.15827 | 34833 ft | 497 kts | 49° |
| 2026-04-28 13:51 | 18.76031 | 108.21459 | 34832 ft | 497 kts | 49° |
| 2026-04-28 13:51 | 18.80435 | 108.27090 | 34830 ft | 497 kts | 49° |
| 2026-04-28 13:52 | 18.84829 | 108.32728 | 34828 ft | 497 kts | 49° |
| 2026-04-28 13:52 | 18.89224 | 108.38370 | 34826 ft | 497 kts | 49° |
| 2026-04-28 13:53 | 18.93633 | 108.44019 | 34823 ft | 498 kts | 49° |
| 2026-04-28 13:53 | 18.98008 | 108.49629 | 34822 ft | 498 kts | 49° |
| 2026-04-28 13:54 | 19.02411 | 108.55283 | 34824 ft | 498 kts | 49° |
| 2026-04-28 13:54 | 19.06807 | 108.60938 | 34824 ft | 498 kts | 49° |
| 2026-04-28 13:55 | 19.11213 | 108.66607 | 34824 ft | 498 kts | 49° |
| 2026-04-28 13:55 | 19.15614 | 108.72273 | 34822 ft | 498 kts | 49° |
| 2026-04-28 13:56 | 19.20013 | 108.77947 | 34823 ft | 498 kts | 49° |
| 2026-04-28 13:56 | 19.24383 | 108.83597 | 34823 ft | 499 kts | 49° |
| 2026-04-28 13:57 | 19.28785 | 108.89282 | 34822 ft | 499 kts | 49° |
| 2026-04-28 13:57 | 19.33190 | 108.94977 | 34917 ft | 503 kts | 49° |
| 2026-04-28 13:58 | 19.37665 | 109.00765 | 34926 ft | 511 kts | 49° |
| 2026-04-28 13:58 | 19.42174 | 109.06603 | 34926 ft | 511 kts | 49° |
| 2026-04-28 13:59 | 19.46682 | 109.12441 | 34928 ft | 511 kts | 49° |
| 2026-04-28 13:59 | 19.51211 | 109.18317 | 34916 ft | 518 kts | 48° |
| 2026-04-28 14:00 | 19.55996 | 109.24035 | 34920 ft | 518 kts | 45° |
| 2026-04-28 14:00 | 19.60972 | 109.29560 | 34924 ft | 517 kts | 44° |
| 2026-04-28 14:01 | 19.65899 | 109.35068 | 34920 ft | 518 kts | 45° |
| 2026-04-28 14:01 | 19.70781 | 109.40695 | 34918 ft | 518 kts | 45° |
| 2026-04-28 14:02 | 19.75639 | 109.46345 | 34926 ft | 518 kts | 45° |
| 2026-04-28 14:02 | 19.78033 | 109.49125 | 36990 ft | 493 kts | 47° |
| 2026-04-28 14:02 | 19.80277 | 109.51734 | 37954 ft | 467 kts | 47° |
| 2026-04-28 14:03 | 19.82458 | 109.54262 | 38358 ft | 464 kts | 47° |
| 2026-04-28 14:03 | 19.84644 | 109.56788 | 38170 ft | 462 kts | 47° |
| 2026-04-28 14:03 | 19.86812 | 109.59284 | 37805 ft | 458 kts | 47° |
| 2026-04-28 14:03 | 19.88967 | 109.61767 | 37427 ft | 457 kts | 47° |
| 2026-04-28 14:04 | 19.91124 | 109.64256 | 37055 ft | 457 kts | 47° |
| 2026-04-28 14:04 | 19.93273 | 109.66743 | 36688 ft | 457 kts | 47° |
| 2026-04-28 14:04 | 19.95423 | 109.69240 | 36311 ft | 457 kts | 47° |
| 2026-04-28 14:04 | 19.97570 | 109.71735 | 35934 ft | 457 kts | 47° |
| 2026-04-28 14:05 | 19.99725 | 109.74237 | 35558 ft | 458 kts | 47° |
| 2026-04-28 14:05 | 20.01878 | 109.76735 | 35205 ft | 459 kts | 47° |
| 2026-04-28 14:05 | 20.04036 | 109.79242 | 35074 ft | 460 kts | 47° |
| 2026-04-28 14:05 | 20.06173 | 109.81725 | 35113 ft | 461 kts | 47° |
| 2026-04-28 14:06 | 20.10519 | 109.86763 | 35108 ft | 461 kts | 47° |
| 2026-04-28 14:06 | 20.14854 | 109.91800 | 35109 ft | 461 kts | 47° |
| 2026-04-28 14:07 | 20.19192 | 109.96848 | 35109 ft | 461 kts | 47° |
| 2026-04-28 14:07 | 20.23524 | 110.01897 | 35108 ft | 461 kts | 47° |
| 2026-04-28 14:08 | 20.27827 | 110.06908 | 35106 ft | 461 kts | 47° |
| 2026-04-28 14:08 | 20.32158 | 110.11962 | 35106 ft | 461 kts | 47° |
| 2026-04-28 14:09 | 20.36485 | 110.17018 | 35112 ft | 462 kts | 47° |
| 2026-04-28 14:09 | 20.40813 | 110.22075 | 35121 ft | 462 kts | 47° |
| 2026-04-28 14:10 | 20.45117 | 110.27114 | 35119 ft | 461 kts | 47° |
| 2026-04-28 14:10 | 20.49434 | 110.32174 | 35116 ft | 461 kts | 47° |
| 2026-04-28 14:11 | 20.53758 | 110.37240 | 35112 ft | 461 kts | 47° |
| 2026-04-28 14:11 | 20.58083 | 110.42302 | 35109 ft | 461 kts | 47° |
| 2026-04-28 14:12 | 20.62395 | 110.47370 | 35105 ft | 461 kts | 47° |
| 2026-04-28 14:12 | 20.66715 | 110.52449 | 35100 ft | 461 kts | 47° |
| 2026-04-28 14:13 | 20.70837 | 110.57295 | 35098 ft | 461 kts | 47° |
| 2026-04-28 14:13 | 20.73008 | 110.59848 | 33891 ft | 466 kts | 44° |
| 2026-04-28 14:13 | 20.75059 | 110.62254 | 33897 ft | 473 kts | 44° |
| 2026-04-28 14:14 | 20.77290 | 110.64881 | 34013 ft | 478 kts | 45° |
| 2026-04-28 14:14 | 20.79533 | 110.67525 | 34131 ft | 482 kts | 45° |
| 2026-04-28 14:14 | 20.81796 | 110.70192 | 34241 ft | 487 kts | 45° |
| 2026-04-28 14:14 | 20.84079 | 110.72885 | 34355 ft | 491 kts | 45° |
| 2026-04-28 14:15 | 20.86384 | 110.75606 | 34472 ft | 495 kts | 45° |
| 2026-04-28 14:15 | 20.88704 | 110.78345 | 34587 ft | 499 kts | 45° |
| 2026-04-28 14:15 | 20.91043 | 110.81109 | 34702 ft | 503 kts | 45° |
| 2026-04-28 14:15 | 20.93394 | 110.83893 | 34820 ft | 506 kts | 45° |
| 2026-04-28 14:16 | 20.95756 | 110.86695 | 34965 ft | 509 kts | 45° |
| 2026-04-28 14:16 | 20.98127 | 110.89510 | 34988 ft | 509 kts | 45° |
| 2026-04-28 14:16 | 21.02875 | 110.95139 | 34993 ft | 509 kts | 45° |
| 2026-04-28 14:17 | 21.07601 | 111.00732 | 34992 ft | 510 kts | 45° |
| 2026-04-28 14:17 | 21.12366 | 111.06374 | 34989 ft | 511 kts | 45° |
| 2026-04-28 14:18 | 21.17124 | 111.12016 | 34994 ft | 510 kts | 45° |
| 2026-04-28 14:18 | 21.21877 | 111.17675 | 35003 ft | 510 kts | 46° |
| 2026-04-28 14:19 | 21.26576 | 111.23284 | 35010 ft | 509 kts | 45° |
| 2026-04-28 14:19 | 21.31307 | 111.28919 | 35011 ft | 508 kts | 46° |
| 2026-04-28 14:20 | 21.36031 | 111.34557 | 35018 ft | 508 kts | 46° |
| 2026-04-28 14:20 | 21.40743 | 111.40193 | 35014 ft | 507 kts | 46° |
| 2026-04-28 14:21 | 21.45454 | 111.45827 | 35011 ft | 507 kts | 46° |
| 2026-04-28 14:21 | 21.50177 | 111.51471 | 35019 ft | 507 kts | 46° |
| 2026-04-28 14:22 | 21.54886 | 111.57098 | 35024 ft | 507 kts | 46° |
| 2026-04-28 14:22 | 21.59555 | 111.62703 | 35022 ft | 507 kts | 46° |
| 2026-04-28 14:23 | 21.64245 | 111.68352 | 35021 ft | 506 kts | 47° |
| 2026-04-28 14:23 | 21.68937 | 111.73989 | 35022 ft | 506 kts | 46° |
| 2026-04-28 14:24 | 21.73634 | 111.79630 | 35020 ft | 506 kts | 46° |
| 2026-04-28 14:24 | 21.78329 | 111.85275 | 35024 ft | 506 kts | 47° |
| 2026-04-28 14:25 | 21.83020 | 111.90929 | 35024 ft | 506 kts | 47° |
| 2026-04-28 14:25 | 21.88044 | 111.96213 | 35019 ft | 504 kts | 39° |
| 2026-04-28 14:26 | 21.93327 | 112.01202 | 35019 ft | 504 kts | 39° |
| 2026-04-28 14:26 | 21.98574 | 112.06167 | 35017 ft | 505 kts | 39° |
| 2026-04-28 14:27 | 22.03857 | 112.11174 | 35010 ft | 505 kts | 39° |
| 2026-04-28 14:27 | 22.09135 | 112.16183 | 35005 ft | 502 kts | 39° |
| 2026-04-28 14:28 | 22.13240 | 112.20085 | 34784 ft | 496 kts | 39° |
| 2026-04-28 14:28 | 22.15877 | 112.22589 | 34033 ft | 513 kts | 40° |
| 2026-04-28 14:28 | 22.18569 | 112.25146 | 33471 ft | 518 kts | 40° |
| 2026-04-28 14:29 | 22.21281 | 112.27726 | 32973 ft | 520 kts | 40° |
| 2026-04-28 14:29 | 22.23999 | 112.30313 | 32500 ft | 522 kts | 40° |
| 2026-04-28 14:29 | 22.26721 | 112.32909 | 32039 ft | 523 kts | 40° |
| 2026-04-28 14:29 | 22.29456 | 112.35517 | 31567 ft | 524 kts | 40° |
| 2026-04-28 14:30 | 22.32198 | 112.38132 | 31242 ft | 526 kts | 40° |
| 2026-04-28 14:30 | 22.34938 | 112.40746 | 30834 ft | 525 kts | 40° |
| 2026-04-28 14:30 | 22.37678 | 112.43361 | 30356 ft | 526 kts | 40° |
| 2026-04-28 14:30 | 22.40426 | 112.45979 | 29851 ft | 527 kts | 39° |
| 2026-04-28 14:31 | 22.43182 | 112.48605 | 29251 ft | 528 kts | 39° |
| 2026-04-28 14:31 | 22.45905 | 112.51199 | 28644 ft | 529 kts | 40° |
| 2026-04-28 14:31 | 22.48662 | 112.53831 | 28030 ft | 529 kts | 40° |
| 2026-04-28 14:31 | 22.51418 | 112.56472 | 27396 ft | 530 kts | 40° |
| 2026-04-28 14:32 | 22.54177 | 112.59121 | 26753 ft | 530 kts | 40° |
| 2026-04-28 14:32 | 22.56938 | 112.61772 | 26091 ft | 530 kts | 40° |
| 2026-04-28 14:32 | 22.59702 | 112.64425 | 25415 ft | 530 kts | 40° |
| 2026-04-28 14:32 | 22.62464 | 112.67080 | 24749 ft | 530 kts | 40° |
| 2026-04-28 14:33 | 22.65210 | 112.69718 | 24275 ft | 526 kts | 40° |
| 2026-04-28 14:33 | 22.67939 | 112.72337 | 23846 ft | 522 kts | 40° |
| 2026-04-28 14:33 | 22.70648 | 112.74935 | 23450 ft | 518 kts | 40° |
| 2026-04-28 14:33 | 22.73345 | 112.77523 | 23008 ft | 515 kts | 40° |
| 2026-04-28 14:34 | 22.78643 | 112.82621 | 22188 ft | 509 kts | 40° |
| 2026-04-28 14:34 | 22.81282 | 112.85164 | 21802 ft | 506 kts | 40° |
| 2026-04-28 14:34 | 22.83902 | 112.87689 | 21479 ft | 503 kts | 40° |
| 2026-04-28 14:35 | 22.86497 | 112.90192 | 21351 ft | 496 kts | 40° |
| 2026-04-28 14:35 | 22.89060 | 112.92665 | 21228 ft | 490 kts | 40° |
| 2026-04-28 14:35 | 22.91599 | 112.95115 | 21104 ft | 486 kts | 40° |
| 2026-04-28 14:35 | 22.94112 | 112.97540 | 20981 ft | 482 kts | 40° |
| 2026-04-28 14:36 | 22.96611 | 112.99955 | 20862 ft | 479 kts | 40° |
| 2026-04-28 14:36 | 22.99092 | 113.02352 | 20748 ft | 476 kts | 40° |
| 2026-04-28 14:36 | 23.01563 | 113.04737 | 20623 ft | 474 kts | 40° |
| 2026-04-28 14:36 | 23.04024 | 113.07117 | 20511 ft | 473 kts | 40° |
| 2026-04-28 14:37 | 23.06475 | 113.09491 | 20394 ft | 471 kts | 40° |
| 2026-04-28 14:37 | 23.08921 | 113.11859 | 20276 ft | 471 kts | 40° |
| 2026-04-28 14:37 | 23.11367 | 113.14228 | 20096 ft | 472 kts | 40° |
| 2026-04-28 14:37 | 23.13815 | 113.16600 | 19572 ft | 480 kts | 40° |
| 2026-04-28 14:38 | 23.16267 | 113.19098 | 19010 ft | 488 kts | 47° |
| 2026-04-28 14:38 | 23.18191 | 113.22167 | 18448 ft | 495 kts | 64° |
| 2026-04-28 14:38 | 23.19269 | 113.25714 | 18088 ft | 492 kts | 82° |
| 2026-04-28 14:38 | 23.19420 | 113.29337 | 17845 ft | 479 kts | 97° |
| 2026-04-28 14:39 | 23.18788 | 113.32770 | 16783 ft | 453 kts | 112° |
| 2026-04-28 14:39 | 23.17365 | 113.35731 | 15607 ft | 434 kts | 130° |
| 2026-04-28 14:39 | 23.15281 | 113.37999 | 14497 ft | 417 kts | 148° |
| 2026-04-28 14:39 | 23.12754 | 113.39394 | 13359 ft | 401 kts | 167° |